Time;durP1;ratioP1;P1;durP2;ratioP2;P2;SDS_P1;SDS_P2;PMS_P1;PMS_P2;Temp;Humidity;BMP_temperature;BMP_pressure;BME280_temperature;BME280_humidity;BME280_pressure;Samples;Min_cycle;Max_cycle;Signal;HPM_P1;HPM_P2
2022/11/30 00:00:38;;;;;;;64.78;26.75;;;6.80;99.90;;;;;;5080043;28;20038;-83
2022/11/30 00:03:04;;;;;;;58.70;25.95;;;6.80;99.90;;;;;;5095212;28;20024;-83
2022/11/30 00:05:30;;;;;;;58.38;26.98;;;6.80;99.90;;;;;;5082720;28;20039;-83
2022/11/30 00:07:55;;;;;;;54.88;26.00;;;7.30;99.90;;;;;;5095107;28;20036;-83
2022/11/30 00:10:21;;;;;;;48.95;25.20;;;6.80;99.90;;;;;;5107707;28;20043;-83
2022/11/30 00:12:48;;;;;;;59.38;26.88;;;6.90;99.90;;;;;;5106452;28;20043;-84
2022/11/30 00:15:16;;;;;;;53.30;25.80;;;6.70;99.90;;;;;;5078870;28;20040;-83
2022/11/30 00:17:46;;;;;;;53.15;25.48;;;6.70;99.90;;;;;;5094364;28;20051;-82
2022/11/30 00:20:15;;;;;;;50.35;25.88;;;7.40;99.90;;;;;;5109346;28;20050;-83
2022/11/30 00:22:41;;;;;;;52.40;26.70;;;6.70;99.90;;;;;;5108969;28;20440;-82
2022/11/30 00:25:07;;;;;;;53.55;25.95;;;6.80;99.90;;;;;;5073129;28;20052;-83
2022/11/30 00:27:34;;;;;;;55.08;27.10;;;6.70;99.90;;;;;;5090402;28;20082;-82
2022/11/30 00:30:00;;;;;;;52.47;25.27;;;6.70;99.90;;;;;;5090702;28;20078;-83
2022/11/30 00:32:27;;;;;;;48.03;25.25;;;6.70;99.90;;;;;;5080617;28;20556;-82
2022/11/30 00:34:53;;;;;;;47.63;24.85;;;6.70;99.90;;;;;;5078764;28;20459;-83
2022/11/30 00:37:18;;;;;;;53.45;24.85;;;7.30;99.90;;;;;;5089326;28;20040;-83
2022/11/30 00:39:44;;;;;;;49.45;25.13;;;6.70;99.90;;;;;;5090855;28;20036;-83
2022/11/30 00:42:13;;;;;;;53.22;26.48;;;6.70;99.90;;;;;;5108995;28;20543;-82
2022/11/30 00:44:42;;;;;;;47.33;25.20;;;6.80;99.90;;;;;;5087198;28;20048;-81
2022/11/30 00:47:08;;;;;;;51.88;25.25;;;7.10;99.90;;;;;;5094046;28;20047;-83
2022/11/30 00:49:33;;;;;;;48.22;25.70;;;7.90;99.90;;;;;;5099008;28;20032;-82
2022/11/30 00:52:00;;;;;;;47.55;24.73;;;6.70;99.90;;;;;;5076122;28;20036;-83
2022/11/30 00:54:26;;;;;;;45.83;24.92;;;6.90;99.90;;;;;;5089402;28;20122;-83
2022/11/30 00:56:53;;;;;;;44.78;24.33;;;7.30;99.90;;;;;;5075848;28;20059;-82
2022/11/30 00:59:19;;;;;;;45.15;24.48;;;6.70;99.90;;;;;;5063953;28;20032;-82
2022/11/30 01:01:44;;;;;;;43.42;23.45;;;7.00;99.90;;;;;;5071460;28;20504;-83
2022/11/30 01:04:10;;;;;;;40.38;22.92;;;6.90;99.90;;;;;;5094353;28;20040;-81
2022/11/30 01:06:36;;;;;;;41.72;24.55;;;6.70;99.90;;;;;;5055679;28;20567;-83
2022/11/30 01:09:03;;;;;;;42.17;24.05;;;7.30;99.90;;;;;;5088022;28;20044;-83
2022/11/30 01:11:29;;;;;;;41.28;23.52;;;7.00;99.90;;;;;;5085410;28;20047;-83
2022/11/30 01:13:57;;;;;;;38.90;23.15;;;6.70;99.90;;;;;;5079423;28;20051;-82
2022/11/30 01:16:26;;;;;;;41.58;23.58;;;7.10;99.90;;;;;;5091206;28;20038;-82
2022/11/30 01:18:52;;;;;;;41.47;23.60;;;6.70;99.90;;;;;;5108198;28;20051;-82
2022/11/30 01:21:21;;;;;;;43.38;24.95;;;6.70;99.90;;;;;;5083452;28;20094;-81
2022/11/30 01:23:49;;;;;;;37.40;22.88;;;6.70;99.90;;;;;;5092740;28;20063;-82
2022/11/30 01:26:16;;;;;;;41.83;23.30;;;6.70;99.90;;;;;;5111672;28;20101;-84
2022/11/30 01:28:45;;;;;;;37.90;23.13;;;6.90;99.90;;;;;;5084959;28;20389;-82
2022/11/30 01:31:13;;;;;;;38.65;22.88;;;6.70;99.90;;;;;;5089254;28;20036;-83
2022/11/30 01:33:40;;;;;;;40.05;23.13;;;7.00;99.90;;;;;;5093932;28;20138;-83
2022/11/30 01:36:10;;;;;;;43.92;24.48;;;6.60;99.90;;;;;;5095050;28;20028;-83
2022/11/30 01:38:38;;;;;;;38.33;23.23;;;6.50;99.90;;;;;;5101669;28;20110;-83
2022/11/30 01:41:06;;;;;;;39.78;23.05;;;6.70;99.90;;;;;;5093870;28;20378;-82
2022/11/30 01:43:45;;;;;;;40.75;22.80;;;6.60;99.90;;;;;;5108431;28;20048;-82
2022/11/30 01:46:26;;;;;;;38.55;22.98;;;6.70;99.90;;;;;;5091660;28;20193;-81
2022/11/30 01:49:17;;;;;;;42.20;23.67;;;6.70;99.90;;;;;;5087190;28;20098;-82
2022/11/30 01:51:53;;;;;;;38.80;22.30;;;6.60;99.90;;;;;;5089396;28;20052;-80
2022/11/30 01:54:23;;;;;;;38.47;21.75;;;6.60;99.90;;;;;;5093777;28;20043;-81
2022/11/30 01:56:53;;;;;;;39.45;22.20;;;6.70;99.90;;;;;;5103414;28;20035;-83
2022/11/30 01:59:22;;;;;;;39.38;22.85;;;6.60;99.90;;;;;;5087826;28;20032;-82
2022/11/30 02:01:47;;;;;;;38.33;22.10;;;6.80;99.90;;;;;;5093539;28;20075;-81
2022/11/30 02:04:33;;;;;;;36.67;22.45;;;7.30;99.90;;;;;;5102147;28;20075;-83
2022/11/30 02:07:01;;;;;;;38.03;23.63;;;7.50;99.90;;;;;;5106527;28;20447;-82
2022/11/30 02:09:28;;;;;;;39.90;23.35;;;6.60;99.90;;;;;;5110941;28;20043;-82
2022/11/30 02:11:55;;;;;;;39.25;22.75;;;6.70;99.90;;;;;;5107330;28;20043;-83
2022/11/30 02:14:36;;;;;;;40.20;22.98;;;6.70;99.90;;;;;;5096789;28;20101;-83
2022/11/30 02:17:34;;;;;;;37.95;22.00;;;6.60;99.90;;;;;;5112435;28;20416;-82
2022/11/30 02:20:00;;;;;;;36.08;21.80;;;6.70;99.90;;;;;;5105309;28;20244;-82
2022/11/30 02:22:54;;;;;;;38.17;23.00;;;6.70;99.90;;;;;;5111397;28;20131;-82
2022/11/30 02:25:44;;;;;;;39.15;23.52;;;6.70;99.90;;;;;;5099435;28;20446;-82
2022/11/30 02:28:29;;;;;;;40.25;22.08;;;6.70;99.90;;;;;;5081460;28;20036;-82
2022/11/30 02:30:58;;;;;;;40.38;23.17;;;6.70;99.90;;;;;;5102389;28;20039;-82
2022/11/30 02:33:30;;;;;;;39.90;22.90;;;6.70;99.90;;;;;;5115648;28;20227;-82
2022/11/30 02:35:56;;;;;;;36.83;21.85;;;8.00;99.90;;;;;;5093481;28;20038;-82
2022/11/30 02:38:25;;;;;;;41.40;22.23;;;7.00;99.90;;;;;;5081967;28;20028;-82
2022/11/30 02:40:53;;;;;;;42.25;22.88;;;6.70;99.90;;;;;;5092367;28;20032;-82
2022/11/30 02:43:22;;;;;;;38.70;23.05;;;6.70;99.90;;;;;;5091373;28;20048;-82
2022/11/30 02:46:18;;;;;;;40.53;22.55;;;7.10;99.90;;;;;;5096285;28;20505;-82
2022/11/30 02:49:17;;;;;;;42.03;22.88;;;6.70;99.90;;;;;;5097876;28;20097;-83
2022/11/30 02:51:44;;;;;;;38.95;21.52;;;6.70;99.90;;;;;;5076801;28;20036;-82
2022/11/30 02:54:10;;;;;;;37.05;21.23;;;6.70;99.90;;;;;;5084558;28;20040;-82
2022/11/30 02:56:36;;;;;;;40.50;22.98;;;6.70;99.90;;;;;;5102487;28;20584;-82
2022/11/30 02:59:02;;;;;;;41.03;23.35;;;6.80;99.90;;;;;;5104921;28;20068;-82
2022/11/30 03:01:28;;;;;;;43.70;22.60;;;6.70;99.90;;;;;;5090663;28;20293;-83
2022/11/30 03:03:54;;;;;;;44.63;23.98;;;6.70;99.90;;;;;;5103888;28;20289;-83
2022/11/30 03:06:19;;;;;;;46.08;23.42;;;6.70;99.90;;;;;;5104149;28;20032;-83
2022/11/30 03:08:45;;;;;;;42.72;22.75;;;6.70;99.90;;;;;;5073510;28;20036;-83
2022/11/30 03:11:11;;;;;;;43.33;22.35;;;6.70;99.90;;;;;;5066465;28;20052;-83
2022/11/30 03:13:37;;;;;;;42.42;22.58;;;6.80;99.90;;;;;;5076428;28;20059;-82
2022/11/30 03:16:10;;;;;;;41.50;23.48;;;6.70;99.90;;;;;;5089617;28;20493;-83
2022/11/30 03:18:36;;;;;;;43.40;24.05;;;6.70;99.90;;;;;;5089989;28;20139;-83
2022/11/30 03:21:10;;;;;;;42.88;23.27;;;6.70;99.90;;;;;;5103018;28;20048;-82
2022/11/30 03:23:37;;;;;;;41.90;23.73;;;6.60;99.90;;;;;;5058266;28;20040;-82
2022/11/30 03:26:05;;;;;;;44.33;23.83;;;6.60;99.90;;;;;;5090006;28;20034;-82
2022/11/30 03:28:30;;;;;;;43.50;23.05;;;6.60;99.90;;;;;;5074110;28;20048;-82
2022/11/30 03:30:56;;;;;;;41.85;22.95;;;6.90;99.90;;;;;;5090088;28;20124;-82
2022/11/30 03:33:23;;;;;;;46.70;24.75;;;7.20;99.90;;;;;;5072642;28;20436;-84
2022/11/30 03:36:07;;;;;;;45.40;23.55;;;8.10;99.90;;;;;;5079694;28;20104;-83
2022/11/30 03:38:33;;;;;;;43.42;22.30;;;6.60;99.90;;;;;;5094800;28;20512;-81
2022/11/30 03:41:05;;;;;;;46.97;23.30;;;6.60;99.90;;;;;;5086577;28;20063;-82
2022/11/30 03:43:31;;;;;;;43.08;22.77;;;6.60;99.90;;;;;;5071576;28;20052;-82
2022/11/30 03:45:57;;;;;;;42.03;22.88;;;6.60;99.90;;;;;;5098540;28;20404;-82
2022/11/30 03:48:22;;;;;;;43.95;22.92;;;7.60;99.90;;;;;;5091106;28;20105;-82
2022/11/30 03:50:49;;;;;;;45.75;24.23;;;6.60;99.90;;;;;;5087121;28;20051;-82
2022/11/30 03:53:19;;;;;;;45.65;23.80;;;6.60;99.90;;;;;;5075164;28;20075;-82
2022/11/30 03:55:45;;;;;;;43.13;22.00;;;7.00;99.90;;;;;;5074301;28;20054;-81
2022/11/30 03:58:11;;;;;;;46.10;23.05;;;6.60;99.90;;;;;;5105667;28;20043;-81
2022/11/30 04:00:38;;;;;;;42.70;22.30;;;6.80;99.90;;;;;;5096121;28;20067;-82
2022/11/30 04:03:04;;;;;;;43.95;21.25;;;6.60;99.90;;;;;;5101569;28;20557;-83
2022/11/30 04:05:29;;;;;;;48.15;23.05;;;7.90;99.90;;;;;;5088539;28;20266;-83
2022/11/30 04:07:55;;;;;;;45.38;22.90;;;6.80;99.90;;;;;;5072448;28;20043;-82
2022/11/30 04:10:22;;;;;;;49.67;22.38;;;6.60;99.90;;;;;;5083020;28;20060;-83
2022/11/30 04:12:48;;;;;;;49.67;23.02;;;8.20;99.90;;;;;;5088456;28;20032;-83
2022/11/30 04:15:14;;;;;;;54.45;23.48;;;6.60;99.90;;;;;;5091022;28;20042;-81
2022/11/30 04:17:40;;;;;;;50.20;22.80;;;6.60;99.90;;;;;;5091193;28;20035;-82
2022/11/30 04:20:06;;;;;;;51.92;22.70;;;6.60;99.90;;;;;;5076893;28;20079;-82
2022/11/30 04:22:32;;;;;;;52.78;24.55;;;6.50;99.90;;;;;;5086532;28;20047;-82
2022/11/30 04:24:58;;;;;;;50.15;23.10;;;6.50;99.90;;;;;;5092298;28;20043;-81
2022/11/30 04:27:24;;;;;;;54.03;23.52;;;6.80;99.90;;;;;;5071757;28;20100;-83
2022/11/30 04:29:50;;;;;;;56.42;23.52;;;6.50;99.90;;;;;;5088345;28;20288;-83
2022/11/30 04:32:15;;;;;;;50.58;21.98;;;6.50;99.90;;;;;;5088646;28;20036;-82
2022/11/30 04:34:41;;;;;;;51.15;23.23;;;7.50;99.90;;;;;;5071591;28;20423;-82
2022/11/30 04:37:07;;;;;;;51.00;23.40;;;6.50;99.90;;;;;;5079636;28;20047;-83
2022/11/30 04:39:33;;;;;;;54.60;24.95;;;6.50;99.90;;;;;;5085293;28;20035;-84
2022/11/30 04:41:59;;;;;;;50.22;23.35;;;7.00;99.90;;;;;;5102828;28;20042;-81
2022/11/30 04:44:25;;;;;;;48.80;23.02;;;6.50;99.90;;;;;;5091554;28;20040;-82
2022/11/30 04:46:50;;;;;;;56.35;23.52;;;6.40;99.90;;;;;;5089065;28;20405;-83
2022/11/30 04:49:16;;;;;;;53.45;23.48;;;6.70;99.90;;;;;;5071527;28;20136;-82
2022/11/30 04:51:42;;;;;;;54.17;23.63;;;6.40;99.90;;;;;;5071746;28;20050;-82
2022/11/30 04:54:08;;;;;;;51.72;23.33;;;6.40;99.90;;;;;;5100912;28;20469;-82
2022/11/30 04:56:33;;;;;;;46.00;22.85;;;6.40;99.90;;;;;;5109033;28;20047;-83
2022/11/30 04:59:00;;;;;;;47.75;22.88;;;6.90;99.90;;;;;;5077003;28;20445;-82
2022/11/30 05:01:27;;;;;;;48.38;22.75;;;6.40;99.90;;;;;;5087936;28;20094;-82
2022/11/30 05:03:52;;;;;;;46.13;20.98;;;6.40;99.90;;;;;;5114669;28;20036;-83
2022/11/30 05:06:18;;;;;;;56.58;23.83;;;6.40;99.90;;;;;;5102505;28;20032;-81
2022/11/30 05:08:44;;;;;;;47.42;22.88;;;6.40;99.90;;;;;;5088323;28;20093;-82
2022/11/30 05:11:09;;;;;;;45.35;22.40;;;6.40;99.90;;;;;;5054667;28;20390;-82
2022/11/30 05:13:35;;;;;;;49.60;22.15;;;6.60;99.90;;;;;;5059018;28;20270;-83
2022/11/30 05:16:01;;;;;;;49.92;23.00;;;6.40;99.90;;;;;;5060497;28;20454;-83
2022/11/30 05:18:28;;;;;;;48.97;22.13;;;6.40;99.90;;;;;;5061890;28;20112;-82
2022/11/30 05:20:54;;;;;;;45.65;21.95;;;6.50;99.90;;;;;;5081892;28;20052;-83
2022/11/30 05:23:20;;;;;;;46.00;21.05;;;6.30;99.90;;;;;;5082609;28;20094;-82
2022/11/30 05:25:46;;;;;;;49.65;21.55;;;6.80;99.90;;;;;;5099354;28;20052;-82
2022/11/30 05:28:12;;;;;;;51.53;22.63;;;6.60;99.90;;;;;;5071435;28;20040;-82
2022/11/30 05:30:39;;;;;;;49.78;22.83;;;7.20;99.90;;;;;;5070991;28;20202;-83
2022/11/30 05:33:06;;;;;;;53.28;23.23;;;6.30;99.90;;;;;;5077624;28;20606;-83
2022/11/30 05:35:32;;;;;;;53.63;23.20;;;6.30;99.90;;;;;;5102381;28;20067;-82
2022/11/30 05:37:58;;;;;;;53.00;22.35;;;6.30;99.90;;;;;;5088055;28;20041;-82
2022/11/30 05:40:24;;;;;;;55.83;23.52;;;6.30;99.90;;;;;;5087855;28;20067;-83
2022/11/30 05:42:58;;;;;;;51.55;22.55;;;5.50;99.90;;;;;;5092832;28;20040;-82
2022/11/30 05:45:24;;;;;;;51.88;22.30;;;6.20;99.90;;;;;;5073474;28;20127;-83
2022/11/30 05:47:50;;;;;;;50.97;22.65;;;7.00;99.90;;;;;;5099451;28;20055;-82
2022/11/30 05:50:16;;;;;;;59.38;23.55;;;6.30;99.90;;;;;;5070335;28;20039;-82
2022/11/30 05:52:41;;;;;;;54.65;22.52;;;6.30;99.90;;;;;;5041478;28;20044;-82
2022/11/30 05:55:07;;;;;;;53.75;22.27;;;7.80;99.90;;;;;;5075808;28;20044;-82
2022/11/30 05:57:40;;;;;;;62.10;23.52;;;6.20;99.90;;;;;;5087072;28;20047;-81
2022/11/30 06:00:08;;;;;;;51.07;22.03;;;6.80;99.90;;;;;;5100927;28;20048;-83
2022/11/30 06:02:34;;;;;;;56.85;22.80;;;6.20;99.90;;;;;;5067043;28;20274;-82
2022/11/30 06:05:00;;;;;;;45.58;21.02;;;6.40;99.90;;;;;;5089277;28;20501;-82
2022/11/30 06:07:25;;;;;;;49.50;22.33;;;6.20;99.90;;;;;;5088323;28;20036;-82
2022/11/30 06:09:51;;;;;;;50.22;21.40;;;6.40;99.90;;;;;;5063119;28;20188;-82
2022/11/30 06:12:17;;;;;;;45.88;21.25;;;6.20;99.90;;;;;;5058571;28;20044;-82
2022/11/30 06:14:43;;;;;;;45.38;21.48;;;6.20;99.90;;;;;;5094495;28;20067;-83
2022/11/30 06:17:08;;;;;;;47.78;20.77;;;6.20;99.90;;;;;;5096420;28;20487;-83
2022/11/30 06:19:34;;;;;;;46.05;21.20;;;6.20;99.90;;;;;;5085988;28;20070;-82
2022/11/30 06:22:00;;;;;;;39.67;19.40;;;6.20;99.90;;;;;;5088686;28;20130;-83
2022/11/30 06:24:26;;;;;;;42.47;19.40;;;6.20;99.90;;;;;;5095865;28;20046;-82
2022/11/30 06:26:51;;;;;;;39.92;18.77;;;5.00;99.90;;;;;;5096301;28;20044;-84
2022/11/30 06:29:20;;;;;;;40.97;19.85;;;6.20;99.90;;;;;;5092653;28;20043;-83
2022/11/30 06:31:45;;;;;;;36.85;19.20;;;6.20;99.90;;;;;;5069739;28;20588;-83
2022/11/30 06:34:11;;;;;;;36.10;18.65;;;6.20;99.90;;;;;;5099455;28;20115;-82
2022/11/30 06:36:37;;;;;;;36.15;17.67;;;6.20;99.90;;;;;;5091631;28;20242;-82
2022/11/30 06:39:03;;;;;;;36.80;18.45;;;6.20;99.90;;;;;;5090341;28;20051;-83
2022/11/30 06:41:29;;;;;;;38.08;18.50;;;6.10;99.90;;;;;;5093542;28;20071;-83
2022/11/30 06:43:54;;;;;;;31.80;17.10;;;6.10;99.90;;;;;;5089644;28;20486;-84
2022/11/30 06:46:21;;;;;;;37.00;17.85;;;7.40;99.90;;;;;;5090937;28;20051;-82
2022/11/30 06:48:48;;;;;;;34.15;17.15;;;6.60;99.90;;;;;;5090473;28;20501;-82
2022/11/30 06:51:17;;;;;;;31.35;17.02;;;6.20;99.90;;;;;;5090701;28;20039;-82
2022/11/30 06:53:43;;;;;;;31.58;16.23;;;7.00;99.90;;;;;;5073472;28;20585;-82
2022/11/30 06:56:10;;;;;;;31.45;16.02;;;6.10;99.90;;;;;;5091919;28;20039;-82
2022/11/30 06:58:36;;;;;;;28.00;15.50;;;6.10;99.90;;;;;;5093180;28;20044;-83
2022/11/30 07:01:11;;;;;;;30.20;15.52;;;6.10;99.90;;;;;;5108785;28;20524;-83
2022/11/30 07:03:37;;;;;;;29.13;15.45;;;6.60;99.90;;;;;;5110763;28;20124;-83
2022/11/30 07:06:11;;;;;;;24.00;14.15;;;6.10;99.90;;;;;;5098446;28;20489;-83
2022/11/30 07:08:38;;;;;;;25.63;14.63;;;6.10;99.90;;;;;;5091592;28;20056;-84
2022/11/30 07:11:04;;;;;;;23.83;13.75;;;6.10;99.90;;;;;;5090511;28;20040;-82
2022/11/30 07:13:30;;;;;;;25.13;13.57;;;6.10;99.90;;;;;;5087291;28;20044;-82
2022/11/30 07:15:56;;;;;;;25.95;13.57;;;7.20;99.90;;;;;;5088523;28;20047;-83
2022/11/30 07:18:22;;;;;;;23.55;13.07;;;6.10;99.90;;;;;;5090464;28;20416;-83
2022/11/30 07:20:48;;;;;;;23.77;13.65;;;6.10;99.90;;;;;;5072857;28;20134;-81
2022/11/30 07:26:05;;;;;;;23.35;13.27;;;6.10;99.90;;;;;;5103840;28;20036;-83
2022/11/30 07:28:31;;;;;;;;;;;6.00;99.90;;;;;;5093039;28;20071;-82
2022/11/30 07:30:56;;;;;;;23.42;13.52;;;6.30;99.90;;;;;;5079371;28;19959;-83
2022/11/30 07:33:22;;;;;;;23.25;13.95;;;6.10;99.90;;;;;;5055924;28;20096;-83
2022/11/30 07:35:48;;;;;;;24.05;13.68;;;6.10;99.90;;;;;;5073250;28;20047;-84
2022/11/30 07:38:13;;;;;;;23.80;13.80;;;7.00;99.90;;;;;;5104189;28;20085;-84
2022/11/30 07:40:39;;;;;;;23.38;13.80;;;7.80;99.90;;;;;;5090082;28;20393;-82
2022/11/30 07:43:05;;;;;;;23.88;14.35;;;7.10;99.90;;;;;;5089888;28;20059;-83
2022/11/30 07:45:30;;;;;;;23.75;14.50;;;6.60;99.90;;;;;;5094779;28;20055;-83
2022/11/30 07:47:58;;;;;;;25.88;14.85;;;6.10;99.90;;;;;;5081328;28;20393;-82
2022/11/30 07:50:24;;;;;;;25.92;15.43;;;6.10;99.90;;;;;;5108834;28;20028;-83
2022/11/30 07:52:49;;;;;;;27.05;15.23;;;6.10;99.90;;;;;;5055739;28;20055;-83
2022/11/30 07:55:15;;;;;;;25.67;15.02;;;6.10;99.90;;;;;;5073095;28;20059;-83
2022/11/30 07:57:41;;;;;;;25.58;14.95;;;6.10;99.90;;;;;;5073690;28;20032;-82
2022/11/30 08:00:08;;;;;;;26.25;15.45;;;6.50;99.90;;;;;;5080520;28;20366;-82
2022/11/30 08:02:33;;;;;;;24.80;15.15;;;6.10;99.90;;;;;;5072343;28;20036;-82
2022/11/30 08:04:59;;;;;;;26.02;15.57;;;6.10;99.90;;;;;;5089506;28;20051;-82
2022/11/30 08:07:25;;;;;;;26.42;15.43;;;6.10;99.90;;;;;;5099002;28;20097;-83
2022/11/30 08:09:51;;;;;;;26.77;15.15;;;6.10;99.90;;;;;;5089830;28;20044;-83
2022/11/30 08:12:16;;;;;;;24.55;14.60;;;6.10;99.90;;;;;;5039241;28;20044;-83
2022/11/30 08:14:42;;;;;;;25.27;14.50;;;6.10;99.90;;;;;;5088429;28;20505;-82
2022/11/30 08:17:08;;;;;;;26.88;14.95;;;6.10;99.90;;;;;;5054155;28;20113;-83
2022/11/30 08:19:35;;;;;;;24.92;14.85;;;6.10;99.90;;;;;;5080443;28;20059;-83
2022/11/30 08:22:01;;;;;;;28.45;16.05;;;6.30;99.90;;;;;;5090658;28;20429;-83
2022/11/30 08:24:27;;;;;;;27.17;15.73;;;6.10;99.90;;;;;;5071937;28;20509;-83
2022/11/30 08:26:53;;;;;;;29.70;15.75;;;6.20;99.90;;;;;;5094860;28;20405;-83
2022/11/30 08:29:19;;;;;;;28.88;16.38;;;6.20;99.90;;;;;;5091994;28;20118;-83
2022/11/30 08:31:45;;;;;;;27.73;16.58;;;6.20;99.90;;;;;;5065380;28;20482;-83
2022/11/30 08:34:12;;;;;;;29.33;16.83;;;6.20;99.90;;;;;;5102511;28;20101;-83
2022/11/30 08:36:39;;;;;;;32.13;17.95;;;6.50;99.90;;;;;;5088341;28;20036;-82
2022/11/30 08:39:06;;;;;;;30.65;17.02;;;6.20;99.90;;;;;;5090465;28;20405;-83
2022/11/30 08:41:33;;;;;;;30.15;17.88;;;4.90;99.90;;;;;;5092144;28;20053;-81
2022/11/30 08:44:00;;;;;;;31.92;17.80;;;6.20;99.90;;;;;;5093154;28;20071;-83
2022/11/30 08:46:26;;;;;;;29.17;17.67;;;6.20;99.90;;;;;;5092447;28;20431;-83
2022/11/30 08:48:56;;;;;;;33.65;18.67;;;6.20;99.90;;;;;;5089968;28;20490;-82
2022/11/30 08:51:22;;;;;;;33.10;18.80;;;7.90;99.90;;;;;;5089364;28;20055;-85
2022/11/30 08:53:47;;;;;;;31.13;18.05;;;6.30;99.90;;;;;;5087032;28;20040;-84
2022/11/30 08:56:19;;;;;;;36.47;19.65;;;6.30;99.90;;;;;;5094531;28;20504;-83
2022/11/30 08:58:46;;;;;;;35.22;18.70;;;6.50;99.90;;;;;;5094212;28;20079;-83
2022/11/30 09:01:23;;;;;;;34.08;18.38;;;6.30;99.90;;;;;;5088308;28;20075;-82
2022/11/30 09:03:52;;;;;;;35.72;19.13;;;6.30;99.90;;;;;;5087757;28;20051;-83
2022/11/30 09:06:27;;;;;;;35.15;19.52;;;6.30;99.90;;;;;;5091436;28;20035;-84
2022/11/30 09:08:55;;;;;;;36.08;20.02;;;6.30;99.90;;;;;;5079247;28;20043;-82
2022/11/30 09:11:32;;;;;;;34.58;19.52;;;7.20;99.90;;;;;;5077237;28;20044;-84
2022/11/30 09:14:00;;;;;;;36.20;19.90;;;6.30;99.90;;;;;;5090894;28;20037;-83
2022/11/30 09:16:27;;;;;;;37.83;19.75;;;6.30;99.90;;;;;;5089416;28;20122;-83
2022/11/30 09:18:53;;;;;;;36.60;19.60;;;6.40;99.90;;;;;;5087884;28;20032;-83
2022/11/30 09:21:21;;;;;;;36.63;21.00;;;6.40;99.90;;;;;;5087988;28;20056;-84
2022/11/30 09:23:48;;;;;;;38.17;20.35;;;6.30;99.90;;;;;;5071223;28;20036;-83
2022/11/30 09:26:16;;;;;;;38.72;21.17;;;6.40;99.90;;;;;;5088477;28;20350;-82
2022/11/30 09:28:44;;;;;;;37.45;20.38;;;6.50;99.90;;;;;;5087787;28;20040;-84
2022/11/30 09:31:13;;;;;;;38.97;21.02;;;6.10;99.90;;;;;;5097037;28;20518;-84
2022/11/30 09:33:39;;;;;;;39.35;20.65;;;6.40;99.90;;;;;;5109316;28;20496;-84
2022/11/30 09:36:07;;;;;;;37.58;20.55;;;6.50;99.90;;;;;;5101454;28;20058;-82
2022/11/30 09:38:33;;;;;;;37.72;21.02;;;6.50;99.90;;;;;;5087713;28;20408;-82
2022/11/30 09:41:03;;;;;;;38.17;20.63;;;7.00;99.90;;;;;;5076377;28;20046;-83
2022/11/30 09:43:56;;;;;;;37.33;20.88;;;6.50;99.90;;;;;;5086441;28;20040;-84
2022/11/30 09:46:33;;;;;;;36.35;20.50;;;6.50;99.90;;;;;;5098529;28;20040;-82
2022/11/30 09:49:17;;;;;;;35.30;21.40;;;6.50;99.90;;;;;;5076535;28;20122;-83
2022/11/30 09:51:48;;;;;;;37.33;20.83;;;6.50;99.90;;;;;;5107764;28;20556;-84
2022/11/30 09:54:37;;;;;;;37.28;21.25;;;8.30;99.90;;;;;;5113281;28;20032;-83
2022/11/30 09:57:30;;;;;;;39.28;21.08;;;6.50;99.90;;;;;;5077023;28;20040;-82
2022/11/30 10:00:18;;;;;;;36.45;21.40;;;6.60;99.90;;;;;;5091883;28;20102;-83
2022/11/30 10:02:44;;;;;;;36.85;20.90;;;6.60;99.90;;;;;;5111515;28;20108;-83
2022/11/30 10:05:25;;;;;;;36.42;20.85;;;6.60;99.90;;;;;;5105087;28;20072;-83
2022/11/30 10:07:54;;;;;;;38.90;21.60;;;6.50;99.90;;;;;;5091922;28;20040;-84
2022/11/30 10:10:19;;;;;;;34.45;20.77;;;6.50;99.90;;;;;;5074501;28;20093;-83
2022/11/30 10:13:27;;;;;;;37.10;21.70;;;6.60;99.90;;;;;;5082535;28;20048;-84
2022/11/30 10:16:10;;;;;;;37.05;20.80;;;6.60;99.90;;;;;;5092492;28;20425;-82
2022/11/30 10:18:50;;;;;;;37.13;20.38;;;6.50;99.90;;;;;;5095569;28;20082;-83
2022/11/30 10:21:31;;;;;;;33.58;20.00;;;6.60;99.90;;;;;;5089887;28;20052;-83
2022/11/30 10:24:03;;;;;;;35.95;20.83;;;6.60;99.90;;;;;;5092474;28;20040;-81
2022/11/30 10:26:34;;;;;;;37.72;21.92;;;6.50;99.90;;;;;;5095804;28;20048;-82
2022/11/30 10:29:29;;;;;;;39.72;21.90;;;6.50;99.90;;;;;;5098352;28;20104;-83
2022/11/30 10:31:58;;;;;;;36.03;21.25;;;6.60;99.90;;;;;;5109822;28;20361;-82
2022/11/30 10:34:31;;;;;;;37.45;20.65;;;5.00;99.90;;;;;;5090434;28;20043;-82
2022/11/30 10:37:11;;;;;;;37.50;21.27;;;6.60;99.90;;;;;;5097185;28;20107;-83
2022/11/30 10:39:46;;;;;;;34.13;20.40;;;6.70;99.90;;;;;;5083364;28;20504;-83
2022/11/30 10:42:36;;;;;;;34.83;20.38;;;6.60;99.90;;;;;;5107214;28;20523;-83
2022/11/30 10:45:09;;;;;;;38.15;21.20;;;6.80;99.90;;;;;;5091487;28;20294;-84
2022/11/30 10:47:41;;;;;;;37.45;21.23;;;6.70;99.90;;;;;;5091043;28;20040;-83
2022/11/30 10:50:12;;;;;;;38.15;21.80;;;6.70;99.90;;;;;;5092387;28;20047;-84
2022/11/30 10:52:47;;;;;;;36.13;21.33;;;6.70;99.90;;;;;;5090044;28;20488;-83
2022/11/30 10:55:27;;;;;;;35.25;21.05;;;6.70;99.90;;;;;;5106576;28;20043;-84
2022/11/30 10:58:06;;;;;;;36.13;20.65;;;6.70;99.90;;;;;;5116371;28;20065;-82
2022/11/30 11:00:31;;;;;;;33.70;20.98;;;5.70;99.90;;;;;;5092381;28;20058;-83
2022/11/30 11:02:57;;;;;;;34.50;20.75;;;6.80;99.90;;;;;;5069648;28;20501;-83
2022/11/30 11:05:30;;;;;;;32.65;19.75;;;6.70;99.90;;;;;;5090658;28;20115;-84
2022/11/30 11:07:57;;;;;;;33.38;19.67;;;6.70;99.90;;;;;;5089355;28;20385;-83
2022/11/30 11:10:35;;;;;;;38.30;20.85;;;7.00;99.90;;;;;;5075575;28;20092;-82
2022/11/30 11:13:01;;;;;;;37.50;20.30;;;6.70;99.90;;;;;;5097425;28;20101;-83
2022/11/30 11:15:30;;;;;;;32.80;20.23;;;6.70;99.90;;;;;;5080750;28;20036;-83
2022/11/30 11:18:24;;;;;;;35.33;19.83;;;6.70;99.90;;;;;;5090323;28;20047;-83
2022/11/30 11:21:06;;;;;;;37.03;21.60;;;6.80;99.90;;;;;;5083635;28;20135;-82
2022/11/30 11:23:37;;;;;;;35.47;21.23;;;6.80;99.90;;;;;;5090254;28;20262;-82
2022/11/30 11:26:16;;;;;;;37.78;22.88;;;6.80;99.90;;;;;;5090127;28;20143;-82
2022/11/30 11:28:51;;;;;;;38.60;23.13;;;6.80;99.90;;;;;;5090389;28;20036;-82
2022/11/30 11:31:18;;;;;;;38.65;22.42;;;6.80;99.90;;;;;;5073370;28;20047;-83
2022/11/30 11:33:52;;;;;;;39.78;22.27;;;6.80;99.90;;;;;;5090149;28;20044;-83
2022/11/30 11:36:26;;;;;;;38.58;21.88;;;6.80;99.90;;;;;;5075035;28;20048;-84
2022/11/30 11:38:55;;;;;;;36.88;22.17;;;6.80;99.90;;;;;;5102593;28;20042;-83
2022/11/30 11:41:33;;;;;;;35.85;22.17;;;6.80;99.90;;;;;;5074270;28;20429;-83
2022/11/30 11:44:08;;;;;;;41.75;23.80;;;6.70;99.90;;;;;;5089327;28;20040;-82
2022/11/30 11:46:37;;;;;;;40.90;23.83;;;6.70;99.90;;;;;;5108341;28;20046;-82
2022/11/30 11:49:06;;;;;;;40.13;24.10;;;6.70;99.90;;;;;;5111109;28;20520;-83
2022/11/30 11:51:38;;;;;;;41.10;24.45;;;6.70;99.90;;;;;;5096769;28;20043;-83
2022/11/30 11:54:19;;;;;;;39.53;23.50;;;6.70;99.90;;;;;;5100482;28;20154;-82
2022/11/30 11:56:45;;;;;;;38.95;23.70;;;6.60;99.90;;;;;;5098610;28;20484;-84
2022/11/30 11:59:29;;;;;;;42.40;23.88;;;7.40;99.90;;;;;;5094176;28;20044;-83
2022/11/30 12:02:21;;;;;;;40.22;24.40;;;6.60;99.90;;;;;;5089638;28;20040;-83
2022/11/30 12:05:01;;;;;;;40.50;24.50;;;6.60;99.90;;;;;;5092590;28;20473;-83
2022/11/30 12:07:33;;;;;;;38.22;22.80;;;6.60;99.90;;;;;;5089838;28;20117;-83
2022/11/30 12:10:22;;;;;;;42.97;24.58;;;6.80;99.90;;;;;;5072610;28;20105;-84
2022/11/30 12:12:48;;;;;;;41.15;25.10;;;6.60;99.90;;;;;;5089187;28;20071;-81
2022/11/30 12:15:14;;;;;;;37.08;22.52;;;7.80;99.90;;;;;;5075014;28;20497;-82
2022/11/30 12:17:40;;;;;;;35.83;22.50;;;6.60;99.90;;;;;;5088246;28;20043;-83
2022/11/30 12:20:14;;;;;;;39.35;23.05;;;6.60;99.90;;;;;;5088524;28;20056;-83
2022/11/30 12:23:01;;;;;;;39.58;24.38;;;6.60;99.90;;;;;;5092166;28;20569;-82
2022/11/30 12:25:39;;;;;;;40.42;23.33;;;6.60;99.90;;;;;;5094938;28;20290;-84
2022/11/30 12:28:46;;;;;;;39.28;24.02;;;6.60;99.90;;;;;;5106997;28;20042;-82
2022/11/30 12:31:15;;;;;;;39.00;23.65;;;6.60;99.90;;;;;;5080426;28;20048;-81
2022/11/30 12:33:41;;;;;;;35.33;22.50;;;6.60;99.90;;;;;;5066144;28;20047;-82
2022/11/30 12:36:34;;;;;;;36.65;22.75;;;6.40;99.90;;;;;;5088300;28;20567;-83
2022/11/30 12:39:14;;;;;;;40.20;23.00;;;6.50;99.90;;;;;;5088366;28;20052;-83
2022/11/30 12:41:56;;;;;;;38.95;21.35;;;6.50;99.90;;;;;;5072173;28;20047;-83
2022/11/30 12:44:43;;;;;;;36.42;21.08;;;6.50;99.90;;;;;;5088589;28;20051;-83
2022/11/30 12:47:19;;;;;;;38.55;22.08;;;6.50;99.90;;;;;;5097068;28;20040;-82
2022/11/30 12:49:53;;;;;;;35.58;21.80;;;6.50;99.90;;;;;;5075129;28;20052;-83
2022/11/30 12:52:37;;;;;;;38.17;22.52;;;6.50;99.90;;;;;;5088404;28;20040;-81
2022/11/30 12:55:03;;;;;;;37.35;22.67;;;6.50;99.90;;;;;;5101438;28;20151;-82